sensor_id;sensor_type;location;lat;lon;timestamp;noise_LAeq;noise_LA_min;noise_LA_max;noise_LA01;noise_LA95
67324;Laerm;57667;51.438;5.968;2023-05-19T00:00:07;44.19;37.79;48.95;;
67324;Laerm;57667;51.438;5.968;2023-05-19T00:00:17;47.02;42.71;52.18;;
67324;Laerm;57667;51.438;5.968;2023-05-19T00:00:28;50.35;44.19;55.60;;
67324;Laerm;57667;51.438;5.968;2023-05-19T00:00:39;41.00;33.03;52.41;;
67324;Laerm;57667;51.438;5.968;2023-05-19T00:00:50;37.22;32.59;41.46;;
67324;Laerm;57667;51.438;5.968;2023-05-19T00:01:00;33.30;29.86;39.59;;
67324;Laerm;57667;51.438;5.968;2023-05-19T00:01:11;30.63;29.32;32.34;;
67324;Laerm;57667;51.438;5.968;2023-05-19T00:01:28;30.32;28.95;36.53;;
67324;Laerm;57667;51.438;5.968;2023-05-19T00:01:39;30.26;29.16;33.59;;
67324;Laerm;57667;51.438;5.968;2023-05-19T00:01:52;30.03;28.92;32.08;;
67324;Laerm;57667;51.438;5.968;2023-05-19T00:02:04;30.17;29.20;32.49;;
67324;Laerm;57667;51.438;5.968;2023-05-19T00:02:14;30.32;29.07;32.05;;
67324;Laerm;57667;51.438;5.968;2023-05-19T00:02:25;30.23;28.42;33.47;;
67324;Laerm;57667;51.438;5.968;2023-05-19T00:02:36;30.25;29.04;31.87;;
67324;Laerm;57667;51.438;5.968;2023-05-19T00:02:48;30.22;28.77;31.70;;
67324;Laerm;57667;51.438;5.968;2023-05-19T00:02:59;29.99;28.96;31.11;;
67324;Laerm;57667;51.438;5.968;2023-05-19T00:03:10;29.97;28.82;31.22;;
67324;Laerm;57667;51.438;5.968;2023-05-19T00:03:22;29.97;28.59;31.19;;
67324;Laerm;57667;51.438;5.968;2023-05-19T00:03:33;29.98;28.84;31.56;;
67324;Laerm;57667;51.438;5.968;2023-05-19T00:03:49;30.16;29.04;33.23;;
67324;Laerm;57667;51.438;5.968;2023-05-19T00:04:01;30.27;29.12;31.60;;
67324;Laerm;57667;51.438;5.968;2023-05-19T00:04:14;30.13;28.98;31.91;;
67324;Laerm;57667;51.438;5.968;2023-05-19T00:04:24;30.01;28.54;31.02;;
67324;Laerm;57667;51.438;5.968;2023-05-19T00:04:35;29.91;28.76;30.93;;
67324;Laerm;57667;51.438;5.968;2023-05-19T00:04:48;29.96;29.02;31.35;;
67324;Laerm;57667;51.438;5.968;2023-05-19T00:04:59;30.12;29.02;31.24;;
67324;Laerm;57667;51.438;5.968;2023-05-19T00:05:11;30.21;28.83;31.71;;
67324;Laerm;57667;51.438;5.968;2023-05-19T00:05:24;30.36;29.04;31.55;;
67324;Laerm;57667;51.438;5.968;2023-05-19T00:05:35;30.44;29.23;31.54;;
67324;Laerm;57667;51.438;5.968;2023-05-19T00:05:45;30.84;29.33;35.17;;
67324;Laerm;57667;51.438;5.968;2023-05-19T00:05:57;30.70;29.29;32.18;;
67324;Laerm;57667;51.438;5.968;2023-05-19T00:06:08;30.65;28.97;36.34;;
67324;Laerm;57667;51.438;5.968;2023-05-19T00:06:22;31.02;29.31;37.17;;
67324;Laerm;57667;51.438;5.968;2023-05-19T00:06:33;30.58;29.17;33.38;;
67324;Laerm;57667;51.438;5.968;2023-05-19T00:06:46;30.51;29.00;33.96;;
67324;Laerm;57667;51.438;5.968;2023-05-19T00:06:59;30.27;29.03;33.24;;
67324;Laerm;57667;51.438;5.968;2023-05-19T00:07:11;30.67;28.90;34.88;;
67324;Laerm;57667;51.438;5.968;2023-05-19T00:07:26;30.62;28.69;40.29;;
67324;Laerm;57667;51.438;5.968;2023-05-19T00:07:39;30.11;28.93;31.47;;
67324;Laerm;57667;51.438;5.968;2023-05-19T00:07:50;30.15;28.98;32.00;;
67324;Laerm;57667;51.438;5.968;2023-05-19T00:08:01;30.28;29.19;31.42;;
67324;Laerm;57667;51.438;5.968;2023-05-19T00:08:12;30.24;29.13;31.41;;
67324;Laerm;57667;51.438;5.968;2023-05-19T00:08:25;30.26;29.18;31.54;;
67324;Laerm;57667;51.438;5.968;2023-05-19T00:08:37;30.36;29.09;40.82;;
67324;Laerm;57667;51.438;5.968;2023-05-19T00:08:48;30.06;28.82;31.39;;
67324;Laerm;57667;51.438;5.968;2023-05-19T00:09:00;30.16;28.87;36.28;;
67324;Laerm;57667;51.438;5.968;2023-05-19T00:09:10;30.03;28.89;31.16;;
67324;Laerm;57667;51.438;5.968;2023-05-19T00:09:21;30.12;28.69;31.24;;
67324;Laerm;57667;51.438;5.968;2023-05-19T00:09:32;29.97;28.95;31.05;;
67324;Laerm;57667;51.438;5.968;2023-05-19T00:09:42;29.99;28.98;31.13;;
67324;Laerm;57667;51.438;5.968;2023-05-19T00:09:53;30.09;28.90;32.52;;
67324;Laerm;57667;51.438;5.968;2023-05-19T00:10:03;30.14;29.02;31.64;;
67324;Laerm;57667;51.438;5.968;2023-05-19T00:10:14;30.25;29.17;31.33;;
67324;Laerm;57667;51.438;5.968;2023-05-19T00:10:25;30.41;29.30;31.44;;
67324;Laerm;57667;51.438;5.968;2023-05-19T00:10:40;30.31;29.07;31.82;;
67324;Laerm;57667;51.438;5.968;2023-05-19T00:10:50;30.27;29.24;31.81;;
67324;Laerm;57667;51.438;5.968;2023-05-19T00:11:01;30.59;29.34;32.67;;
67324;Laerm;57667;51.438;5.968;2023-05-19T00:11:11;30.58;29.21;32.41;;
67324;Laerm;57667;51.438;5.968;2023-05-19T00:11:22;30.40;29.19;31.85;;
67324;Laerm;57667;51.438;5.968;2023-05-19T00:11:33;30.22;29.08;31.71;;
67324;Laerm;57667;51.438;5.968;2023-05-19T00:11:47;30.10;29.07;31.41;;
67324;Laerm;57667;51.438;5.968;2023-05-19T00:11:57;30.28;28.95;33.29;;
67324;Laerm;57667;51.438;5.968;2023-05-19T00:12:08;30.75;29.22;32.58;;
67324;Laerm;57667;51.438;5.968;2023-05-19T00:12:19;31.70;29.68;35.07;;
67324;Laerm;57667;51.438;5.968;2023-05-19T00:12:30;30.50;29.22;31.74;;
67324;Laerm;57667;51.438;5.968;2023-05-19T00:12:40;30.31;29.07;31.54;;
67324;Laerm;57667;51.438;5.968;2023-05-19T00:12:51;30.41;29.04;32.71;;
67324;Laerm;57667;51.438;5.968;2023-05-19T00:13:02;30.38;29.17;31.85;;
67324;Laerm;57667;51.438;5.968;2023-05-19T00:13:12;30.46;29.17;31.93;;
67324;Laerm;57667;51.438;5.968;2023-05-19T00:13:23;30.26;29.17;31.46;;
67324;Laerm;57667;51.438;5.968;2023-05-19T00:13:33;30.42;28.66;32.04;;
67324;Laerm;57667;51.438;5.968;2023-05-19T00:13:44;30.36;29.12;31.62;;
67324;Laerm;57667;51.438;5.968;2023-05-19T00:13:57;30.89;29.38;37.81;;
67324;Laerm;57667;51.438;5.968;2023-05-19T00:14:08;30.68;29.38;35.23;;
67324;Laerm;57667;51.438;5.968;2023-05-19T00:14:19;30.12;28.94;31.37;;
67324;Laerm;57667;51.438;5.968;2023-05-19T00:14:29;30.28;29.11;31.55;;
67324;Laerm;57667;51.438;5.968;2023-05-19T00:14:40;30.21;28.90;35.43;;
67324;Laerm;57667;51.438;5.968;2023-05-19T00:14:50;30.37;29.18;32.30;;
67324;Laerm;57667;51.438;5.968;2023-05-19T00:15:01;30.63;29.19;31.82;;
67324;Laerm;57667;51.438;5.968;2023-05-19T00:15:11;31.65;29.68;37.27;;
67324;Laerm;57667;51.438;5.968;2023-05-19T00:15:22;33.42;30.26;40.60;;
67324;Laerm;57667;51.438;5.968;2023-05-19T00:15:32;30.78;29.52;31.83;;
67324;Laerm;57667;51.438;5.968;2023-05-19T00:15:42;30.96;29.42;32.57;;
67324;Laerm;57667;51.438;5.968;2023-05-19T00:15:53;31.36;29.62;33.74;;
67324;Laerm;57667;51.438;5.968;2023-05-19T00:16:04;30.61;29.30;32.53;;
67324;Laerm;57667;51.438;5.968;2023-05-19T00:16:15;30.57;29.42;36.06;;
67324;Laerm;57667;51.438;5.968;2023-05-19T00:16:26;30.52;29.44;31.73;;
67324;Laerm;57667;51.438;5.968;2023-05-19T00:16:37;30.31;29.26;31.29;;
67324;Laerm;57667;51.438;5.968;2023-05-19T00:16:47;30.44;29.24;32.03;;
67324;Laerm;57667;51.438;5.968;2023-05-19T00:16:58;30.58;29.13;31.87;;
67324;Laerm;57667;51.438;5.968;2023-05-19T00:17:11;30.48;29.30;31.90;;
67324;Laerm;57667;51.438;5.968;2023-05-19T00:17:21;30.54;29.07;32.28;;
67324;Laerm;57667;51.438;5.968;2023-05-19T00:17:31;30.37;29.09;33.12;;
67324;Laerm;57667;51.438;5.968;2023-05-19T00:17:43;30.64;29.03;32.27;;
67324;Laerm;57667;51.438;5.968;2023-05-19T00:17:54;31.50;29.69;36.51;;
67324;Laerm;57667;51.438;5.968;2023-05-19T00:18:04;31.41;29.65;33.77;;
67324;Laerm;57667;51.438;5.968;2023-05-19T00:18:15;32.06;29.85;35.45;;
67324;Laerm;57667;51.438;5.968;2023-05-19T00:18:25;31.63;29.91;35.31;;
67324;Laerm;57667;51.438;5.968;2023-05-19T00:18:38;31.94;29.79;34.80;;
67324;Laerm;57667;51.438;5.968;2023-05-19T00:18:49;34.66;30.69;42.62;;
67324;Laerm;57667;51.438;5.968;2023-05-19T00:19:01;33.86;31.34;36.24;;
67324;Laerm;57667;51.438;5.968;2023-05-19T00:19:12;34.77;32.12;40.20;;
67324;Laerm;57667;51.438;5.968;2023-05-19T00:19:22;35.20;32.52;40.96;;
67324;Laerm;57667;51.438;5.968;2023-05-19T00:19:33;37.10;32.81;46.40;;
67324;Laerm;57667;51.438;5.968;2023-05-19T00:19:43;34.79;32.73;37.60;;
67324;Laerm;57667;51.438;5.968;2023-05-19T00:19:54;34.82;32.57;36.68;;
67324;Laerm;57667;51.438;5.968;2023-05-19T00:20:04;35.59;34.05;37.13;;
67324;Laerm;57667;51.438;5.968;2023-05-19T00:20:16;36.43;34.43;41.11;;
67324;Laerm;57667;51.438;5.968;2023-05-19T00:20:26;37.09;35.08;40.43;;
67324;Laerm;57667;51.438;5.968;2023-05-19T00:20:37;36.66;34.72;39.31;;
67324;Laerm;57667;51.438;5.968;2023-05-19T00:20:48;36.27;34.27;39.41;;
67324;Laerm;57667;51.438;5.968;2023-05-19T00:20:58;36.56;34.64;38.40;;
67324;Laerm;57667;51.438;5.968;2023-05-19T00:21:08;36.60;34.46;39.13;;
67324;Laerm;57667;51.438;5.968;2023-05-19T00:21:19;37.00;35.47;40.02;;
67324;Laerm;57667;51.438;5.968;2023-05-19T00:21:30;37.35;35.23;41.46;;
67324;Laerm;57667;51.438;5.968;2023-05-19T00:21:40;37.61;35.22;40.08;;
67324;Laerm;57667;51.438;5.968;2023-05-19T00:21:51;37.25;35.46;40.35;;
67324;Laerm;57667;51.438;5.968;2023-05-19T00:22:01;37.37;35.27;40.43;;
67324;Laerm;57667;51.438;5.968;2023-05-19T00:22:12;37.12;35.44;39.63;;
67324;Laerm;57667;51.438;5.968;2023-05-19T00:22:22;37.56;35.13;41.92;;
67324;Laerm;57667;51.438;5.968;2023-05-19T00:22:33;37.59;35.64;40.39;;
67324;Laerm;57667;51.438;5.968;2023-05-19T00:22:43;38.15;35.28;40.93;;
67324;Laerm;57667;51.438;5.968;2023-05-19T00:22:54;38.11;35.57;41.12;;
67324;Laerm;57667;51.438;5.968;2023-05-19T00:23:04;37.83;35.66;41.01;;
67324;Laerm;57667;51.438;5.968;2023-05-19T00:23:14;38.49;36.42;41.14;;
67324;Laerm;57667;51.438;5.968;2023-05-19T00:23:25;40.10;37.45;43.51;;
67324;Laerm;57667;51.438;5.968;2023-05-19T00:23:35;40.58;38.29;43.02;;
67324;Laerm;57667;51.438;5.968;2023-05-19T00:23:45;40.59;38.67;42.63;;
67324;Laerm;57667;51.438;5.968;2023-05-19T00:23:56;42.28;40.03;45.15;;
67324;Laerm;57667;51.438;5.968;2023-05-19T00:24:06;43.17;40.83;46.68;;
67324;Laerm;57667;51.438;5.968;2023-05-19T00:24:17;44.61;40.87;49.68;;
67324;Laerm;57667;51.438;5.968;2023-05-19T00:24:27;45.30;42.76;47.59;;
67324;Laerm;57667;51.438;5.968;2023-05-19T00:24:37;45.86;43.48;49.16;;
67324;Laerm;57667;51.438;5.968;2023-05-19T00:24:48;44.93;42.34;48.25;;
67324;Laerm;57667;51.438;5.968;2023-05-19T00:24:58;46.39;42.06;50.81;;
67324;Laerm;57667;51.438;5.968;2023-05-19T00:25:08;46.93;43.97;51.03;;
67324;Laerm;57667;51.438;5.968;2023-05-19T00:25:19;48.56;45.53;52.39;;
67324;Laerm;57667;51.438;5.968;2023-05-19T00:25:29;48.00;44.77;52.00;;
67324;Laerm;57667;51.438;5.968;2023-05-19T00:25:40;46.96;43.55;52.12;;
67324;Laerm;57667;51.438;5.968;2023-05-19T00:25:50;46.78;43.96;49.42;;
67324;Laerm;57667;51.438;5.968;2023-05-19T00:26:01;46.39;44.16;49.15;;
67324;Laerm;57667;51.438;5.968;2023-05-19T00:26:11;46.12;43.50;49.84;;
67324;Laerm;57667;51.438;5.968;2023-05-19T00:26:22;46.33;43.79;47.91;;
67324;Laerm;57667;51.438;5.968;2023-05-19T00:26:32;47.10;45.13;49.33;;
67324;Laerm;57667;51.438;5.968;2023-05-19T00:26:43;47.42;45.66;50.11;;
67324;Laerm;57667;51.438;5.968;2023-05-19T00:26:53;48.38;46.51;51.39;;
67324;Laerm;57667;51.438;5.968;2023-05-19T00:27:03;49.81;48.15;51.82;;
67324;Laerm;57667;51.438;5.968;2023-05-19T00:27:14;50.93;48.77;52.62;;
67324;Laerm;57667;51.438;5.968;2023-05-19T00:27:24;52.07;49.61;54.37;;
67324;Laerm;57667;51.438;5.968;2023-05-19T00:27:34;53.02;50.24;56.18;;
67324;Laerm;57667;51.438;5.968;2023-05-19T00:27:44;58.07;52.57;62.20;;
67324;Laerm;57667;51.438;5.968;2023-05-19T00:27:55;60.84;58.00;65.34;;
67324;Laerm;57667;51.438;5.968;2023-05-19T00:28:05;60.38;56.73;66.30;;
67324;Laerm;57667;51.438;5.968;2023-05-19T00:28:15;60.72;57.21;64.19;;
67324;Laerm;57667;51.438;5.968;2023-05-19T00:28:26;63.96;60.49;67.56;;
67324;Laerm;57667;51.438;5.968;2023-05-19T00:28:36;63.86;61.55;66.04;;
67324;Laerm;57667;51.438;5.968;2023-05-19T00:28:47;66.21;62.99;70.33;;
67324;Laerm;57667;51.438;5.968;2023-05-19T00:28:57;65.03;61.92;69.20;;
67324;Laerm;57667;51.438;5.968;2023-05-19T00:29:07;64.93;61.42;68.63;;
67324;Laerm;57667;51.438;5.968;2023-05-19T00:29:17;63.98;60.78;68.33;;
67324;Laerm;57667;51.438;5.968;2023-05-19T00:29:28;64.04;61.62;66.56;;
67324;Laerm;57667;51.438;5.968;2023-05-19T00:29:38;63.57;60.83;65.73;;
67324;Laerm;57667;51.438;5.968;2023-05-19T00:29:48;61.37;58.30;64.44;;
67324;Laerm;57667;51.438;5.968;2023-05-19T00:29:59;60.57;57.75;63.45;;
67324;Laerm;57667;51.438;5.968;2023-05-19T00:30:09;61.45;58.80;63.45;;
67324;Laerm;57667;51.438;5.968;2023-05-19T00:30:20;60.25;57.71;64.38;;
67324;Laerm;57667;51.438;5.968;2023-05-19T00:30:31;60.81;57.67;64.70;;
67324;Laerm;57667;51.438;5.968;2023-05-19T00:30:42;58.96;56.56;61.98;;
67324;Laerm;57667;51.438;5.968;2023-05-19T00:30:52;58.60;55.82;61.10;;
67324;Laerm;57667;51.438;5.968;2023-05-19T00:31:03;58.05;55.44;60.49;;
67324;Laerm;57667;51.438;5.968;2023-05-19T00:31:14;58.18;55.10;61.10;;
67324;Laerm;57667;51.438;5.968;2023-05-19T00:31:24;60.01;56.16;63.24;;
67324;Laerm;57667;51.438;5.968;2023-05-19T00:31:35;58.99;56.30;61.99;;
67324;Laerm;57667;51.438;5.968;2023-05-19T00:31:45;58.09;55.24;60.80;;
67324;Laerm;57667;51.438;5.968;2023-05-19T00:31:55;57.21;54.35;59.87;;
67324;Laerm;57667;51.438;5.968;2023-05-19T00:32:06;58.22;55.04;61.47;;
67324;Laerm;57667;51.438;5.968;2023-05-19T00:32:16;57.00;52.67;61.77;;
67324;Laerm;57667;51.438;5.968;2023-05-19T00:32:26;55.48;51.81;58.99;;
67324;Laerm;57667;51.438;5.968;2023-05-19T00:32:37;59.00;55.53;62.51;;
67324;Laerm;57667;51.438;5.968;2023-05-19T00:32:47;57.47;53.67;60.32;;
67324;Laerm;57667;51.438;5.968;2023-05-19T00:32:57;54.80;51.15;58.01;;
67324;Laerm;57667;51.438;5.968;2023-05-19T00:33:08;55.67;52.11;59.58;;
67324;Laerm;57667;51.438;5.968;2023-05-19T00:33:18;53.88;45.98;57.40;;
67324;Laerm;57667;51.438;5.968;2023-05-19T00:33:28;47.16;44.26;49.76;;
67324;Laerm;57667;51.438;5.968;2023-05-19T00:33:39;45.62;43.14;48.75;;
67324;Laerm;57667;51.438;5.968;2023-05-19T00:33:49;45.53;41.92;49.46;;
67324;Laerm;57667;51.438;5.968;2023-05-19T00:34:01;43.39;40.18;47.32;;
67324;Laerm;57667;51.438;5.968;2023-05-19T00:34:11;43.11;40.79;45.92;;
67324;Laerm;57667;51.438;5.968;2023-05-19T00:34:21;42.38;40.04;46.28;;
67324;Laerm;57667;51.438;5.968;2023-05-19T00:34:32;42.43;38.52;46.96;;
67324;Laerm;57667;51.438;5.968;2023-05-19T00:34:42;42.26;39.92;44.80;;
67324;Laerm;57667;51.438;5.968;2023-05-19T00:34:52;43.15;40.65;46.61;;
67324;Laerm;57667;51.438;5.968;2023-05-19T00:35:03;44.17;41.16;47.86;;
67324;Laerm;57667;51.438;5.968;2023-05-19T00:35:13;42.65;39.71;45.68;;
67324;Laerm;57667;51.438;5.968;2023-05-19T00:35:24;40.97;38.29;44.21;;
67324;Laerm;57667;51.438;5.968;2023-05-19T00:35:35;40.92;37.81;44.47;;
67324;Laerm;57667;51.438;5.968;2023-05-19T00:35:45;40.94;38.77;44.28;;
67324;Laerm;57667;51.438;5.968;2023-05-19T00:35:55;41.21;38.63;45.36;;
67324;Laerm;57667;51.438;5.968;2023-05-19T00:36:06;41.50;38.43;45.06;;
67324;Laerm;57667;51.438;5.968;2023-05-19T00:36:16;41.52;38.56;45.49;;
67324;Laerm;57667;51.438;5.968;2023-05-19T00:36:26;40.98;38.41;44.43;;
67324;Laerm;57667;51.438;5.968;2023-05-19T00:36:37;39.01;36.63;41.75;;
67324;Laerm;57667;51.438;5.968;2023-05-19T00:36:47;38.81;37.04;41.93;;
67324;Laerm;57667;51.438;5.968;2023-05-19T00:36:58;39.02;36.48;42.98;;
67324;Laerm;57667;51.438;5.968;2023-05-19T00:37:08;39.28;36.47;42.63;;
67324;Laerm;57667;51.438;5.968;2023-05-19T00:37:18;40.16;37.68;43.22;;
67324;Laerm;57667;51.438;5.968;2023-05-19T00:37:29;38.96;36.40;41.84;;
67324;Laerm;57667;51.438;5.968;2023-05-19T00:37:39;34.45;30.02;39.70;;
67324;Laerm;57667;51.438;5.968;2023-05-19T00:37:50;31.02;29.92;32.52;;
67324;Laerm;57667;51.438;5.968;2023-05-19T00:38:00;30.89;29.29;32.69;;
67324;Laerm;57667;51.438;5.968;2023-05-19T00:38:11;30.82;29.50;32.24;;
67324;Laerm;57667;51.438;5.968;2023-05-19T00:38:21;30.75;29.26;33.59;;
67324;Laerm;57667;51.438;5.968;2023-05-19T00:38:32;30.50;29.19;31.72;;
67324;Laerm;57667;51.438;5.968;2023-05-19T00:38:42;30.69;29.59;31.96;;
67324;Laerm;57667;51.438;5.968;2023-05-19T00:38:53;30.60;29.30;31.75;;
67324;Laerm;57667;51.438;5.968;2023-05-19T00:39:03;30.70;29.40;32.03;;
67324;Laerm;57667;51.438;5.968;2023-05-19T00:39:13;31.05;29.37;32.26;;
67324;Laerm;57667;51.438;5.968;2023-05-19T00:39:24;31.30;29.62;34.62;;
67324;Laerm;57667;51.438;5.968;2023-05-19T00:39:34;31.82;30.21;36.93;;
67324;Laerm;57667;51.438;5.968;2023-05-19T00:39:44;31.75;30.32;33.24;;
67324;Laerm;57667;51.438;5.968;2023-05-19T00:39:55;32.80;30.27;37.19;;
67324;Laerm;57667;51.438;5.968;2023-05-19T00:40:05;33.13;30.75;36.10;;
67324;Laerm;57667;51.438;5.968;2023-05-19T00:40:16;32.12;30.40;34.35;;
67324;Laerm;57667;51.438;5.968;2023-05-19T00:40:26;32.69;30.52;35.13;;
67324;Laerm;57667;51.438;5.968;2023-05-19T00:40:39;32.48;30.31;35.26;;
67324;Laerm;57667;51.438;5.968;2023-05-19T00:40:49;34.48;31.93;38.41;;
67324;Laerm;57667;51.438;5.968;2023-05-19T00:41:01;34.14;30.21;38.25;;
67324;Laerm;57667;51.438;5.968;2023-05-19T00:41:12;32.97;30.52;36.13;;
67324;Laerm;57667;51.438;5.968;2023-05-19T00:41:22;32.37;30.62;34.56;;
67324;Laerm;57667;51.438;5.968;2023-05-19T00:41:32;31.23;29.90;33.17;;
67324;Laerm;57667;51.438;5.968;2023-05-19T00:41:43;31.01;28.97;34.00;;
67324;Laerm;57667;51.438;5.968;2023-05-19T00:41:53;39.53;32.05;43.48;;
67324;Laerm;57667;51.438;5.968;2023-05-19T00:42:03;41.31;38.62;43.87;;
67324;Laerm;57667;51.438;5.968;2023-05-19T00:42:14;43.20;39.71;47.75;;
67324;Laerm;57667;51.438;5.968;2023-05-19T00:42:25;41.39;36.28;54.70;;
67324;Laerm;57667;51.438;5.968;2023-05-19T00:42:35;38.54;35.89;41.30;;
67324;Laerm;57667;51.438;5.968;2023-05-19T00:42:45;39.51;36.05;42.44;;
67324;Laerm;57667;51.438;5.968;2023-05-19T00:42:56;39.62;36.27;42.69;;
67324;Laerm;57667;51.438;5.968;2023-05-19T00:43:06;39.59;36.71;43.87;;
67324;Laerm;57667;51.438;5.968;2023-05-19T00:43:17;39.05;36.18;43.68;;
67324;Laerm;57667;51.438;5.968;2023-05-19T00:43:27;37.77;34.98;40.35;;
67324;Laerm;57667;51.438;5.968;2023-05-19T00:43:43;37.40;34.97;40.65;;
67324;Laerm;57667;51.438;5.968;2023-05-19T00:43:53;38.38;35.05;42.27;;
67324;Laerm;57667;51.438;5.968;2023-05-19T00:44:05;35.69;31.61;38.95;;
67324;Laerm;57667;51.438;5.968;2023-05-19T00:44:15;30.94;29.57;33.71;;
67324;Laerm;57667;51.438;5.968;2023-05-19T00:44:25;31.89;29.76;42.49;;
67324;Laerm;57667;51.438;5.968;2023-05-19T00:44:39;32.15;29.28;43.15;;
67324;Laerm;57667;51.438;5.968;2023-05-19T00:44:50;31.11;29.80;32.69;;
67324;Laerm;57667;51.438;5.968;2023-05-19T00:45:01;30.73;29.55;31.72;;
67324;Laerm;57667;51.438;5.968;2023-05-19T00:45:11;30.52;29.27;33.76;;
67324;Laerm;57667;51.438;5.968;2023-05-19T00:45:21;30.46;29.41;31.78;;
67324;Laerm;57667;51.438;5.968;2023-05-19T00:45:33;30.67;29.44;32.18;;
67324;Laerm;57667;51.438;5.968;2023-05-19T00:45:43;30.62;29.41;32.61;;
67324;Laerm;57667;51.438;5.968;2023-05-19T00:45:54;30.58;29.35;32.35;;
67324;Laerm;57667;51.438;5.968;2023-05-19T00:46:05;30.96;29.27;33.68;;
67324;Laerm;57667;51.438;5.968;2023-05-19T00:46:17;31.94;29.60;38.64;;
67324;Laerm;57667;51.438;5.968;2023-05-19T00:46:27;30.68;29.49;31.84;;
67324;Laerm;57667;51.438;5.968;2023-05-19T00:46:39;30.53;29.39;31.85;;
67324;Laerm;57667;51.438;5.968;2023-05-19T00:46:50;31.04;29.60;36.88;;
67324;Laerm;57667;51.438;5.968;2023-05-19T00:47:00;31.88;29.69;35.05;;
67324;Laerm;57667;51.438;5.968;2023-05-19T00:47:11;33.67;30.81;37.59;;
67324;Laerm;57667;51.438;5.968;2023-05-19T00:47:21;34.28;31.18;37.64;;
67324;Laerm;57667;51.438;5.968;2023-05-19T00:47:32;35.89;33.17;38.24;;
67324;Laerm;57667;51.438;5.968;2023-05-19T00:47:42;38.09;35.24;41.63;;
67324;Laerm;57667;51.438;5.968;2023-05-19T00:47:52;36.61;32.77;40.54;;
67324;Laerm;57667;51.438;5.968;2023-05-19T00:48:03;42.01;38.37;44.58;;
67324;Laerm;57667;51.438;5.968;2023-05-19T00:48:13;47.13;42.43;51.59;;
67324;Laerm;57667;51.438;5.968;2023-05-19T00:48:23;58.64;48.65;65.19;;
67324;Laerm;57667;51.438;5.968;2023-05-19T00:48:34;57.80;42.48;64.88;;
67324;Laerm;57667;51.438;5.968;2023-05-19T00:48:44;38.40;31.23;44.96;;
67324;Laerm;57667;51.438;5.968;2023-05-19T00:48:55;31.76;29.64;34.47;;
67324;Laerm;57667;51.438;5.968;2023-05-19T00:49:05;30.62;29.30;32.13;;
67324;Laerm;57667;51.438;5.968;2023-05-19T00:49:15;30.40;29.14;38.03;;
67324;Laerm;57667;51.438;5.968;2023-05-19T00:49:26;30.20;29.29;32.90;;
67324;Laerm;57667;51.438;5.968;2023-05-19T00:49:36;30.10;29.05;32.76;;
67324;Laerm;57667;51.438;5.968;2023-05-19T00:49:46;30.44;29.19;31.78;;
67324;Laerm;57667;51.438;5.968;2023-05-19T00:49:57;30.47;29.18;31.74;;
67324;Laerm;57667;51.438;5.968;2023-05-19T00:50:07;30.48;29.48;31.66;;
67324;Laerm;57667;51.438;5.968;2023-05-19T00:50:17;30.81;29.57;32.49;;
67324;Laerm;57667;51.438;5.968;2023-05-19T00:50:28;31.10;29.62;32.52;;
67324;Laerm;57667;51.438;5.968;2023-05-19T00:50:38;31.03;29.49;33.32;;
67324;Laerm;57667;51.438;5.968;2023-05-19T00:50:49;31.00;29.64;33.15;;
67324;Laerm;57667;51.438;5.968;2023-05-19T00:51:00;31.57;29.67;33.36;;
67324;Laerm;57667;51.438;5.968;2023-05-19T00:51:13;40.16;31.08;50.34;;
67324;Laerm;57667;51.438;5.968;2023-05-19T00:51:25;71.26;49.11;74.93;;
67324;Laerm;57667;51.438;5.968;2023-05-19T00:51:37;71.94;68.58;77.69;;
67324;Laerm;57667;51.438;5.968;2023-05-19T00:51:47;69.82;54.72;77.45;;
67324;Laerm;57667;51.438;5.968;2023-05-19T00:52:01;53.28;46.81;60.03;;
67324;Laerm;57667;51.438;5.968;2023-05-19T00:52:11;46.95;39.96;53.98;;
67324;Laerm;57667;51.438;5.968;2023-05-19T00:52:22;41.18;38.49;44.45;;
67324;Laerm;57667;51.438;5.968;2023-05-19T00:52:32;41.50;37.93;45.19;;
67324;Laerm;57667;51.438;5.968;2023-05-19T00:52:42;39.51;36.60;42.42;;
67324;Laerm;57667;51.438;5.968;2023-05-19T00:52:53;40.11;37.17;42.86;;
67324;Laerm;57667;51.438;5.968;2023-05-19T00:53:04;38.52;34.76;45.21;;
67324;Laerm;57667;51.438;5.968;2023-05-19T00:53:16;36.12;33.00;39.41;;
67324;Laerm;57667;51.438;5.968;2023-05-19T00:53:27;35.93;32.62;44.72;;
67324;Laerm;57667;51.438;5.968;2023-05-19T00:53:38;35.79;32.41;43.67;;
67324;Laerm;57667;51.438;5.968;2023-05-19T00:53:48;34.75;32.39;45.87;;
67324;Laerm;57667;51.438;5.968;2023-05-19T00:54:01;33.15;31.54;34.99;;
67324;Laerm;57667;51.438;5.968;2023-05-19T00:54:11;34.72;31.99;45.05;;
67324;Laerm;57667;51.438;5.968;2023-05-19T00:54:22;34.68;31.45;42.12;;
67324;Laerm;57667;51.438;5.968;2023-05-19T00:54:33;33.19;31.47;36.28;;
67324;Laerm;57667;51.438;5.968;2023-05-19T00:54:43;33.96;31.24;42.24;;
67324;Laerm;57667;51.438;5.968;2023-05-19T00:54:55;32.38;30.97;34.06;;
67324;Laerm;57667;51.438;5.968;2023-05-19T00:55:05;32.94;31.54;34.61;;
67324;Laerm;57667;51.438;5.968;2023-05-19T00:55:17;32.60;30.90;36.20;;
67324;Laerm;57667;51.438;5.968;2023-05-19T00:55:28;33.44;31.57;36.50;;
67324;Laerm;57667;51.438;5.968;2023-05-19T00:55:40;33.69;30.80;37.27;;
67324;Laerm;57667;51.438;5.968;2023-05-19T00:55:51;32.66;31.06;34.92;;
67324;Laerm;57667;51.438;5.968;2023-05-19T00:56:02;32.27;30.87;34.19;;
67324;Laerm;57667;51.438;5.968;2023-05-19T00:56:12;32.50;30.93;34.57;;
67324;Laerm;57667;51.438;5.968;2023-05-19T00:56:23;31.51;30.14;33.14;;
67324;Laerm;57667;51.438;5.968;2023-05-19T00:56:33;31.44;30.12;33.07;;
67324;Laerm;57667;51.438;5.968;2023-05-19T00:56:44;32.01;30.61;33.62;;
67324;Laerm;57667;51.438;5.968;2023-05-19T00:56:54;31.90;30.30;33.71;;
67324;Laerm;57667;51.438;5.968;2023-05-19T00:57:06;31.96;30.47;39.16;;
67324;Laerm;57667;51.438;5.968;2023-05-19T00:57:16;31.92;30.21;33.47;;
67324;Laerm;57667;51.438;5.968;2023-05-19T00:57:27;31.67;30.33;33.10;;
67324;Laerm;57667;51.438;5.968;2023-05-19T00:57:37;31.33;29.72;33.04;;
67324;Laerm;57667;51.438;5.968;2023-05-19T00:57:48;31.58;30.38;33.13;;
67324;Laerm;57667;51.438;5.968;2023-05-19T00:57:58;31.41;30.26;33.62;;
67324;Laerm;57667;51.438;5.968;2023-05-19T00:58:09;31.35;30.03;33.12;;
67324;Laerm;57667;51.438;5.968;2023-05-19T00:58:21;31.48;29.91;34.36;;
67324;Laerm;57667;51.438;5.968;2023-05-19T00:58:32;31.40;30.33;32.96;;
67324;Laerm;57667;51.438;5.968;2023-05-19T00:58:43;31.61;30.44;32.73;;
67324;Laerm;57667;51.438;5.968;2023-05-19T00:58:54;31.68;30.30;33.64;;
67324;Laerm;57667;51.438;5.968;2023-05-19T00:59:05;32.05;30.38;33.95;;
67324;Laerm;57667;51.438;5.968;2023-05-19T00:59:15;32.16;30.62;34.18;;
67324;Laerm;57667;51.438;5.968;2023-05-19T00:59:26;31.86;30.52;33.25;;
67324;Laerm;57667;51.438;5.968;2023-05-19T00:59:36;31.13;29.95;32.31;;
67324;Laerm;57667;51.438;5.968;2023-05-19T00:59:47;31.43;29.93;35.35;;
67324;Laerm;57667;51.438;5.968;2023-05-19T00:59:57;32.38;30.30;34.98;;
67324;Laerm;57667;51.438;5.968;2023-05-19T01:00:08;32.44;30.04;40.24;;
67324;Laerm;57667;51.438;5.968;2023-05-19T01:00:19;32.61;29.36;39.42;;
67324;Laerm;57667;51.438;5.968;2023-05-19T01:00:29;30.58;29.45;32.06;;
67324;Laerm;57667;51.438;5.968;2023-05-19T01:00:39;30.85;29.31;33.17;;